createdAt,value
2023-01-12T00:02:25.334Z,7.93
2023-01-12T00:04:53.042Z,6.38
2023-01-12T00:07:20.744Z,7.88
2023-01-12T00:09:48.458Z,4.45
2023-01-12T00:12:16.116Z,6.00
2023-01-12T00:14:43.748Z,7.10
2023-01-12T00:17:16.704Z,3.78
2023-01-12T00:19:44.323Z,3.67
2023-01-12T00:22:17.614Z,6.93
2023-01-12T00:24:47.940Z,5.47
2023-01-12T00:27:17.511Z,5.68
2023-01-12T00:29:45.158Z,5.10
2023-01-12T00:32:15.883Z,3.40
2023-01-12T00:34:43.650Z,6.13
2023-01-12T00:37:11.739Z,3.60
2023-01-12T00:39:43.099Z,5.15
2023-01-12T00:42:39.944Z,5.15
2023-01-12T00:45:22.250Z,6.18
2023-01-12T00:47:51.343Z,4.80
2023-01-12T00:50:19.742Z,7.68
2023-01-12T00:52:47.581Z,4.60
2023-01-12T00:55:15.345Z,5.60
2023-01-12T00:57:43.021Z,10.35
2023-01-12T01:00:14.672Z,4.47
2023-01-12T01:02:42.293Z,8.35
2023-01-12T01:05:11.529Z,7.38
2023-01-12T01:07:39.192Z,3.88
2023-01-12T01:10:07.711Z,6.30
2023-01-12T01:12:35.360Z,8.10
2023-01-12T01:15:03.364Z,6.82
2023-01-12T01:17:30.950Z,4.68
2023-01-12T01:19:58.647Z,6.50
2023-01-12T01:22:28.037Z,9.23
2023-01-12T01:24:55.927Z,7.47
2023-01-12T01:27:25.729Z,3.75
2023-01-12T01:29:53.491Z,4.70
2023-01-12T01:32:21.246Z,10.93
2023-01-12T01:34:48.999Z,5.18
2023-01-12T01:37:16.917Z,5.45
2023-01-12T01:39:46.063Z,3.20
2023-01-12T01:42:28.013Z,6.03
2023-01-12T01:44:59.499Z,4.07
2023-01-12T01:47:35.390Z,4.43
2023-01-12T01:50:07.092Z,8.15
2023-01-12T01:52:38.357Z,7.78
2023-01-12T01:55:18.049Z,7.05
2023-01-12T01:57:49.692Z,4.78
2023-01-12T02:00:18.586Z,8.13
2023-01-12T02:02:47.780Z,6.22
2023-01-12T02:05:20.027Z,3.63
2023-01-12T02:07:48.237Z,11.27
2023-01-12T02:10:18.537Z,9.57
2023-01-12T02:13:03.870Z,7.07
2023-01-12T02:15:54.030Z,9.27
2023-01-12T02:18:28.506Z,4.13
2023-01-12T02:21:34.555Z,6.80
2023-01-12T02:24:33.079Z,7.97
2023-01-12T02:27:36.814Z,10.20
2023-01-12T02:30:37.997Z,9.30
2023-01-12T02:33:23.814Z,10.20
2023-01-12T02:35:59.736Z,5.07
2023-01-12T02:38:35.754Z,12.05
2023-01-12T02:41:15.359Z,10.07
2023-01-12T02:43:42.965Z,7.90
2023-01-12T02:46:14.147Z,9.27
2023-01-12T02:48:49.137Z,5.28
2023-01-12T02:51:23.564Z,8.85
2023-01-12T02:53:53.649Z,10.88
2023-01-12T02:56:25.694Z,10.73
2023-01-12T02:58:56.425Z,8.98
2023-01-12T03:01:27.427Z,8.25
2023-01-12T03:04:01.082Z,5.75
2023-01-12T03:06:39.452Z,7.32
2023-01-12T03:09:07.130Z,10.57
2023-01-12T03:11:35.882Z,4.75
2023-01-12T03:14:05.278Z,6.78
2023-01-12T03:16:36.513Z,5.32
2023-01-12T03:19:09.791Z,5.82
2023-01-12T03:21:40.720Z,7.28
2023-01-12T03:24:12.030Z,11.82
2023-01-12T03:26:43.933Z,9.38
2023-01-12T03:29:16.012Z,5.25
2023-01-12T03:31:45.358Z,9.98
2023-01-12T03:34:14.483Z,5.40
2023-01-12T03:36:49.891Z,5.90
2023-01-12T03:39:22.891Z,8.13
2023-01-12T03:41:57.779Z,8.65
2023-01-12T03:44:31.406Z,8.73
2023-01-12T03:47:02.717Z,4.82
2023-01-12T03:49:35.083Z,8.15
2023-01-12T03:52:04.863Z,7.97
2023-01-12T03:54:35.327Z,14.07
2023-01-12T03:57:04.582Z,11.57
2023-01-12T03:59:32.335Z,7.60
2023-01-12T04:02:00.226Z,8.07
2023-01-12T04:04:27.942Z,5.03
2023-01-12T04:06:57.180Z,8.20
2023-01-12T04:09:25.838Z,11.20
2023-01-12T04:12:12.345Z,9.07
2023-01-12T04:14:41.396Z,13.05
2023-01-12T04:17:11.314Z,6.75
2023-01-12T04:19:39.041Z,9.30
2023-01-12T04:22:25.912Z,11.52
2023-01-12T04:24:53.652Z,7.65
2023-01-12T04:27:21.269Z,9.23
2023-01-12T04:29:48.936Z,9.07
2023-01-12T04:32:16.538Z,12.43
2023-01-12T04:34:44.241Z,8.27
2023-01-12T04:37:13.617Z,8.27
2023-01-12T04:39:41.281Z,9.85
2023-01-12T04:42:29.893Z,10.68
2023-01-12T04:44:57.542Z,9.95
2023-01-12T04:47:25.204Z,14.40
2023-01-12T04:49:52.823Z,9.88
2023-01-12T04:52:21.797Z,7.75
2023-01-12T04:54:49.445Z,9.30
2023-01-12T04:57:17.060Z,13.57
2023-01-12T04:59:45.975Z,9.13
2023-01-12T05:02:13.669Z,8.73
2023-01-12T05:04:42.523Z,5.70
2023-01-12T05:07:10.274Z,6.82
2023-01-12T05:09:56.739Z,9.57
2023-01-12T05:12:24.535Z,10.15
2023-01-12T05:14:52.337Z,7.55
2023-01-12T05:17:19.966Z,5.63
2023-01-12T05:19:49.310Z,10.43
2023-01-12T05:22:17.047Z,10.13
2023-01-12T05:24:46.058Z,12.73
2023-01-12T05:27:13.690Z,10.43
2023-01-12T05:29:41.284Z,5.32
2023-01-12T05:32:08.879Z,9.38
2023-01-12T05:34:36.505Z,16.02
2023-01-12T05:37:04.127Z,4.20
2023-01-12T05:39:31.703Z,6.38
2023-01-12T05:42:18.395Z,8.77
2023-01-12T05:44:46.081Z,13.27
2023-01-12T05:47:13.747Z,7.03
2023-01-12T05:49:41.432Z,4.90
2023-01-12T05:52:09.078Z,6.22
2023-01-12T05:54:36.747Z,6.43
2023-01-12T05:57:05.785Z,4.22
2023-01-12T05:59:33.388Z,8.18
2023-01-12T06:02:01.079Z,12.35
2023-01-12T06:04:28.794Z,9.38
2023-01-12T06:06:56.458Z,7.60
2023-01-12T06:09:24.071Z,11.32
2023-01-12T06:12:09.240Z,12.48
2023-01-12T06:14:38.235Z,6.85
2023-01-12T06:17:05.938Z,3.67
2023-01-12T06:19:33.703Z,5.30
2023-01-12T06:22:01.269Z,7.35
2023-01-12T06:24:29.382Z,7.70
2023-01-12T06:26:57.066Z,6.32
2023-01-12T06:29:24.677Z,6.28
2023-01-12T06:31:53.689Z,12.50
2023-01-12T06:34:21.371Z,7.55
2023-01-12T06:36:49.378Z,6.22
2023-01-12T06:39:16.979Z,6.93
2023-01-12T06:42:19.489Z,9.15
2023-01-12T06:44:48.843Z,9.70
2023-01-12T06:47:18.113Z,10.15
2023-01-12T06:49:45.785Z,7.43
2023-01-12T06:52:13.572Z,6.70
2023-01-12T06:54:41.211Z,7.45
2023-01-12T06:57:08.804Z,7.50
2023-01-12T06:59:38.864Z,5.95
2023-01-12T07:02:07.014Z,5.97
2023-01-12T07:04:36.012Z,3.85
2023-01-12T07:07:03.626Z,6.88
2023-01-12T07:09:31.216Z,12.68
2023-01-12T07:11:58.903Z,15.10
2023-01-12T07:14:26.525Z,8.85
2023-01-12T07:16:54.212Z,4.72
2023-01-12T07:19:22.119Z,11.43
2023-01-12T07:21:51.298Z,12.45
2023-01-12T07:24:19.257Z,6.50
2023-01-12T07:26:49.511Z,6.45
2023-01-12T07:29:19.598Z,8.18
2023-01-12T07:31:49.232Z,7.20
2023-01-12T07:34:17.557Z,6.57
2023-01-12T07:36:45.266Z,5.40
2023-01-12T07:39:14.221Z,5.68
2023-01-12T07:42:00.301Z,5.95
2023-01-12T07:44:28.056Z,9.27
2023-01-12T07:46:55.838Z,4.32
2023-01-12T07:49:23.523Z,3.58
2023-01-12T07:51:53.707Z,5.07
2023-01-12T07:54:23.369Z,6.18
2023-01-12T07:56:51.059Z,6.03
2023-01-12T07:59:20.042Z,5.28
2023-01-12T08:01:47.863Z,10.00
2023-01-12T08:04:15.631Z,2.95
2023-01-12T08:06:43.652Z,8.73
2023-01-12T08:09:11.288Z,9.93
2023-01-12T08:11:40.298Z,6.47
2023-01-12T08:14:08.941Z,7.00
2023-01-12T08:16:40.761Z,10.02
2023-01-12T08:19:10.834Z,5.75
2023-01-12T08:21:48.271Z,10.65
2023-01-12T08:24:18.358Z,2.05
2023-01-12T08:26:49.399Z,5.53
2023-01-12T08:29:19.476Z,8.30
2023-01-12T08:31:47.471Z,8.25
2023-01-12T08:34:15.380Z,10.80
2023-01-12T08:36:44.732Z,8.50
2023-01-12T08:39:12.987Z,7.07
2023-01-12T08:41:43.492Z,10.00
2023-01-12T08:44:12.755Z,7.68
2023-01-12T08:46:51.893Z,4.55
2023-01-12T08:49:24.393Z,10.40
2023-01-12T08:54:21.101Z,6.63
2023-01-12T08:56:51.387Z,13.25
2023-01-12T08:59:20.789Z,5.30
2023-01-12T09:01:48.753Z,4.55
2023-01-12T09:04:16.945Z,6.35
2023-01-12T09:06:46.183Z,12.55
2023-01-12T09:09:16.877Z,8.30
2023-01-12T09:11:48.929Z,11.63
2023-01-12T09:14:22.763Z,7.45
2023-01-12T09:20:39.115Z,7.40
2023-01-12T09:23:12.961Z,8.38
2023-01-12T09:25:40.599Z,6.03
2023-01-12T09:28:08.309Z,9.52
2023-01-12T09:30:35.927Z,9.02
2023-01-12T09:33:03.791Z,8.15
2023-01-12T09:35:31.763Z,9.18
2023-01-12T09:38:00.775Z,3.80
2023-01-12T09:40:28.480Z,7.43
2023-01-12T09:43:13.559Z,4.05
2023-01-12T09:45:58.798Z,7.20
2023-01-12T09:48:26.654Z,9.35
2023-01-12T09:51:00.786Z,8.02
2023-01-12T09:53:34.156Z,10.00
2023-01-12T09:56:07.439Z,4.82
2023-01-12T09:58:52.454Z,6.75
2023-01-12T10:01:29.269Z,5.00
2023-01-12T10:04:00.954Z,6.60
2023-01-12T10:06:31.590Z,5.78
2023-01-12T10:09:03.355Z,5.05
2023-01-12T10:11:39.557Z,8.98
2023-01-12T10:14:25.710Z,6.47
2023-01-12T10:17:07.921Z,4.00
2023-01-12T10:19:45.910Z,7.43
2023-01-12T10:22:36.949Z,4.03
2023-01-12T10:25:24.053Z,1.75
2023-01-12T10:27:53.542Z,6.40
2023-01-12T10:30:29.051Z,3.53
2023-01-12T10:32:56.782Z,4.10
2023-01-12T10:35:26.561Z,1.58
2023-01-12T10:37:56.647Z,2.85
2023-01-12T10:40:30.579Z,1.45
2023-01-12T10:43:23.863Z,2.70
2023-01-12T10:46:06.076Z,1.00
2023-01-12T10:48:34.169Z,1.48
2023-01-12T10:51:03.893Z,3.67
2023-01-12T10:53:38.798Z,1.48
2023-01-12T10:56:21.475Z,1.05
2023-01-12T10:58:55.211Z,3.67
2023-01-12T11:01:23.504Z,5.45
2023-01-12T11:03:51.673Z,1.20
2023-01-12T11:06:30.888Z,3.53
2023-01-12T11:08:59.091Z,3.58
2023-01-12T11:11:33.483Z,3.03
2023-01-12T11:14:03.265Z,7.15
2023-01-12T11:16:33.856Z,4.45
2023-01-12T11:19:19.675Z,4.72
2023-01-12T11:21:52.739Z,2.60
2023-01-12T11:24:34.584Z,3.13
2023-01-12T11:27:11.732Z,3.72
2023-01-12T11:29:46.062Z,3.63
2023-01-12T11:32:18.172Z,2.90
2023-01-12T11:35:03.818Z,2.10
2023-01-12T11:37:35.105Z,2.50
2023-01-12T11:40:08.210Z,3.60
2023-01-12T11:42:55.358Z,3.05
2023-01-12T11:45:28.244Z,2.42
2023-01-12T11:48:01.063Z,2.25
2023-01-12T11:50:30.748Z,2.30
2023-01-12T11:52:59.235Z,3.60
2023-01-12T11:55:55.362Z,5.38
2023-01-12T11:58:32.371Z,2.65
2023-01-12T12:01:08.953Z,3.42
2023-01-12T12:04:00.343Z,5.03
2023-01-12T12:06:50.006Z,2.15
2023-01-12T12:09:29.714Z,3.13
2023-01-12T12:12:00.763Z,2.35
2023-01-12T12:14:48.106Z,3.65
2023-01-12T12:17:20.594Z,3.92
2023-01-12T12:19:58.946Z,2.63
2023-01-12T12:22:42.371Z,1.90
2023-01-12T12:25:31.381Z,3.88
2023-01-12T12:28:13.922Z,1.58
2023-01-12T12:31:04.290Z,4.22
2023-01-12T12:33:46.684Z,1.83
2023-01-12T12:36:19.917Z,8.23
2023-01-12T12:39:11.335Z,1.95
2023-01-12T12:42:02.400Z,3.90
2023-01-12T12:44:59.780Z,4.25
2023-01-12T12:47:44.253Z,1.67
2023-01-12T12:50:19.036Z,1.75
2023-01-12T12:52:49.510Z,1.75
2023-01-12T12:55:17.739Z,3.50
2023-01-12T12:58:02.776Z,1.75
2023-01-12T13:00:42.834Z,3.78
2023-01-12T13:03:12.020Z,2.83
2023-01-12T13:05:45.119Z,2.85
2023-01-12T13:08:25.382Z,4.65
2023-01-12T13:10:55.775Z,3.00
2023-01-12T13:13:30.851Z,5.07
2023-01-12T13:16:46.111Z,2.72
2023-01-12T13:19:33.212Z,3.28
2023-01-12T13:22:26.758Z,2.63
2023-01-12T13:24:54.876Z,2.22
2023-01-12T13:27:47.820Z,4.93
2023-01-12T13:30:41.128Z,1.92
2023-01-12T13:33:24.204Z,3.75
2023-01-12T13:36:10.165Z,2.13
2023-01-12T13:39:06.862Z,2.47
2023-01-12T13:41:53.747Z,3.78
2023-01-12T13:44:26.998Z,1.20
2023-01-12T13:47:03.092Z,3.63
2023-01-12T13:49:32.973Z,2.53
2023-01-12T13:52:05.516Z,4.38
2023-01-12T13:54:34.541Z,3.35
2023-01-12T13:57:05.404Z,2.42
2023-01-12T13:59:34.857Z,0.85
2023-01-12T14:02:02.882Z,1.63
2023-01-12T14:04:49.729Z,1.65
2023-01-12T14:07:32.337Z,1.98
2023-01-12T14:10:14.422Z,2.38
2023-01-12T14:13:08.622Z,1.00
2023-01-12T14:15:56.015Z,3.53
2023-01-12T14:18:25.795Z,2.20
2023-01-12T14:20:55.287Z,4.30
2023-01-12T14:23:29.781Z,2.83
2023-01-12T14:26:13.163Z,1.17
2023-01-12T14:28:42.501Z,4.50
2023-01-12T14:31:22.341Z,1.63
2023-01-12T14:33:52.067Z,3.60
2023-01-12T14:36:23.895Z,3.95
2023-01-12T14:38:53.655Z,3.47
2023-01-12T14:41:42.072Z,3.90
2023-01-12T14:44:35.146Z,1.50
2023-01-12T14:49:32.303Z,2.83
2023-01-12T14:52:01.403Z,2.05
2023-01-12T14:54:32.572Z,4.78
2023-01-12T14:57:01.984Z,3.70
2023-01-12T14:59:31.944Z,1.95
2023-01-12T15:02:20.113Z,4.05
2023-01-12T15:04:52.944Z,6.63
2023-01-12T15:07:22.470Z,5.07
2023-01-12T15:09:57.853Z,4.28
2023-01-12T15:12:35.920Z,5.55
2023-01-12T15:15:16.006Z,3.90
2023-01-12T15:18:01.752Z,2.80
2023-01-12T15:20:47.215Z,4.13
2023-01-12T15:23:32.384Z,7.55
2023-01-12T15:26:01.425Z,2.42
2023-01-12T15:28:30.175Z,2.72
2023-01-12T15:30:58.075Z,4.07
2023-01-12T15:33:25.808Z,2.15
2023-01-12T15:35:54.044Z,1.20
2023-01-12T15:38:21.719Z,3.30
2023-01-12T15:40:50.784Z,2.42
2023-01-12T15:43:23.902Z,3.65
2023-01-12T15:45:51.835Z,5.00
2023-01-12T15:48:31.441Z,2.88
2023-01-12T15:50:59.178Z,5.55
2023-01-12T15:53:36.142Z,2.63
2023-01-12T15:56:03.853Z,5.93
2023-01-12T15:58:32.819Z,4.80
2023-01-12T16:01:00.567Z,3.33
2023-01-12T16:03:54.917Z,4.68
2023-01-12T16:06:15.888Z,5.47
2023-01-12T16:08:43.503Z,7.57
2023-01-12T16:11:17.831Z,4.45
2023-01-12T16:13:49.192Z,7.32
2023-01-12T16:16:17.703Z,4.80
2023-01-12T16:18:45.511Z,4.93
2023-01-12T16:21:16.553Z,2.17
2023-01-12T16:23:44.196Z,3.30
2023-01-12T16:26:11.989Z,3.10
2023-01-12T16:28:40.076Z,4.95
2023-01-12T16:31:11.766Z,6.45
2023-01-12T16:33:39.957Z,4.00
2023-01-12T16:36:09.232Z,6.93
2023-01-12T16:38:36.948Z,6.85
2023-01-12T16:41:09.282Z,4.30
2023-01-12T16:43:37.958Z,5.97
2023-01-12T16:46:06.981Z,1.00
2023-01-12T16:48:38.519Z,2.70
2023-01-12T16:51:12.076Z,9.02
2023-01-12T16:53:41.483Z,3.88
2023-01-12T16:56:11.699Z,2.25
2023-01-12T16:58:41.714Z,4.95
2023-01-12T17:01:13.997Z,4.70
2023-01-12T17:03:43.441Z,2.75
2023-01-12T17:06:13.403Z,2.13
2023-01-12T17:08:42.724Z,4.47
2023-01-12T17:11:13.124Z,4.43
2023-01-12T17:13:41.483Z,1.48
2023-01-12T17:16:09.744Z,4.05
2023-01-12T17:18:38.241Z,1.60
2023-01-12T17:21:13.332Z,1.77
2023-01-12T17:23:42.148Z,3.40
2023-01-12T17:26:13.217Z,2.67
2023-01-12T17:29:06.637Z,2.72
2023-01-12T17:31:34.435Z,3.25
2023-01-12T17:34:02.318Z,4.80
2023-01-12T17:36:33.516Z,7.13
2023-01-12T17:39:01.701Z,3.53
2023-01-12T17:41:47.595Z,2.92
2023-01-12T17:44:15.788Z,4.57
2023-01-12T17:46:43.765Z,1.73
2023-01-12T17:49:12.584Z,2.75
2023-01-12T17:51:42.027Z,4.38
2023-01-12T17:54:13.913Z,3.47
2023-01-12T17:56:41.653Z,9.50
2023-01-12T17:59:09.953Z,5.55
2023-01-12T18:01:40.006Z,2.10
2023-01-12T18:04:11.062Z,1.83
2023-01-12T18:06:39.038Z,3.50
2023-01-12T18:09:08.881Z,2.17
2023-01-12T18:11:36.999Z,1.75
2023-01-12T18:14:05.370Z,3.20
2023-01-12T18:16:33.747Z,5.40
2023-01-12T18:19:05.941Z,3.65
2023-01-12T18:21:34.632Z,4.15
2023-01-12T18:24:02.848Z,3.88
2023-01-12T18:26:35.639Z,5.40
2023-01-12T18:29:04.940Z,4.85
2023-01-12T18:31:37.241Z,2.58
2023-01-12T18:34:05.910Z,3.13
2023-01-12T18:36:35.596Z,11.07
2023-01-12T18:39:05.270Z,4.03
2023-01-12T18:41:53.664Z,3.60
2023-01-12T18:44:21.436Z,2.28
2023-01-12T18:47:06.553Z,1.67
2023-01-12T18:49:36.171Z,3.90
2023-01-12T18:52:23.648Z,1.67
2023-01-12T18:54:53.305Z,4.00
2023-01-12T18:57:24.157Z,7.75
2023-01-12T18:59:53.750Z,5.20
2023-01-12T19:02:22.207Z,1.67
2023-01-12T19:05:15.750Z,3.97
2023-01-12T19:08:03.364Z,4.13
2023-01-12T19:10:34.345Z,1.38
2023-01-12T19:13:20.692Z,1.65
2023-01-12T19:16:07.070Z,2.95
2023-01-12T19:18:36.737Z,5.82
2023-01-12T19:21:28.080Z,2.38
2023-01-12T19:24:13.444Z,2.38
2023-01-12T19:26:58.646Z,3.58
2023-01-12T19:29:27.902Z,2.70
2023-01-12T19:31:55.503Z,4.13
2023-01-12T19:34:24.768Z,1.38
2023-01-12T19:37:32.177Z,4.07
2023-01-12T19:40:20.875Z,4.13
2023-01-12T19:43:06.059Z,1.83
2023-01-12T19:48:58.034Z,3.30
2023-01-12T19:51:25.661Z,5.03
2023-01-12T19:53:53.243Z,2.22
2023-01-12T19:56:20.878Z,3.55
2023-01-12T19:58:48.751Z,4.47
2023-01-12T20:01:22.952Z,2.55
2023-01-12T20:03:51.439Z,2.97
2023-01-12T20:06:19.285Z,3.38
2023-01-12T20:08:47.078Z,5.35
2023-01-12T20:11:15.403Z,2.92
2023-01-12T20:13:43.377Z,2.47
2023-01-12T20:16:11.650Z,2.67
2023-01-12T20:18:43.406Z,5.95
2023-01-12T20:21:13.384Z,4.97
2023-01-12T20:23:48.549Z,5.80
2023-01-12T20:26:16.166Z,6.10
2023-01-12T20:28:44.141Z,3.65
2023-01-12T20:31:13.619Z,3.58
2023-01-12T20:33:42.934Z,2.40
2023-01-12T20:36:11.787Z,3.88
2023-01-12T20:38:40.717Z,3.45
2023-01-12T20:41:09.087Z,3.67
2023-01-12T20:43:37.433Z,2.50
2023-01-12T20:46:08.528Z,5.35
2023-01-12T20:48:36.188Z,2.67
2023-01-12T20:51:08.443Z,4.53
2023-01-12T20:53:36.228Z,3.80
2023-01-12T20:56:04.156Z,3.10
2023-01-12T20:58:31.938Z,2.45
2023-01-12T21:01:02.184Z,2.92
2023-01-12T21:03:30.045Z,2.10
2023-01-12T21:05:59.956Z,1.95
2023-01-12T21:08:29.068Z,4.22
2023-01-12T21:10:59.468Z,3.38
2023-01-12T21:13:27.075Z,2.90
2023-01-12T21:15:58.560Z,3.70
2023-01-12T21:18:26.173Z,1.70
2023-01-12T21:20:53.799Z,2.72
2023-01-12T21:23:21.524Z,4.13
2023-01-12T21:25:51.096Z,4.47
2023-01-12T21:28:18.667Z,2.95
2023-01-12T21:30:46.385Z,3.22
2023-01-12T21:33:14.521Z,4.90
2023-01-12T21:35:42.321Z,1.83
2023-01-12T21:38:11.227Z,1.10
2023-01-12T21:40:41.405Z,3.42
2023-01-12T21:43:10.191Z,2.45
2023-01-12T21:45:38.831Z,1.95
2023-01-12T21:48:07.205Z,3.85
2023-01-12T21:50:35.659Z,4.13
2023-01-12T21:53:04.398Z,4.10
2023-01-12T21:55:33.343Z,1.83
2023-01-12T21:58:02.262Z,3.65
2023-01-12T22:00:31.693Z,3.33
2023-01-12T22:02:59.874Z,5.65
2023-01-12T22:05:27.836Z,2.58
2023-01-12T22:07:57.589Z,3.30
2023-01-12T22:10:30.252Z,3.10
2023-01-12T22:15:28.842Z,2.15
2023-01-12T22:17:57.928Z,1.92
2023-01-12T22:20:27.679Z,2.70
2023-01-12T22:22:55.721Z,3.10
2023-01-12T22:25:23.430Z,3.10
2023-01-12T22:27:54.212Z,2.05
2023-01-12T22:30:25.131Z,2.75
2023-01-12T22:32:54.424Z,2.13
2023-01-12T22:35:25.717Z,3.55
2023-01-12T22:37:54.592Z,2.40
2023-01-12T22:40:22.292Z,2.92
2023-01-12T22:43:07.634Z,2.40
2023-01-12T22:45:35.616Z,1.98
2023-01-12T22:48:03.378Z,3.55
2023-01-12T22:50:32.351Z,2.25
2023-01-12T22:53:00.064Z,2.20
2023-01-12T22:55:27.928Z,2.15
2023-01-12T22:57:55.612Z,2.97
2023-01-12T23:00:23.321Z,3.60
2023-01-12T23:03:03.391Z,3.28
2023-01-12T23:05:36.142Z,3.85
2023-01-12T23:08:05.366Z,5.45
2023-01-12T23:10:33.142Z,4.03
2023-01-12T23:13:15.782Z,4.00
2023-01-12T23:15:45.962Z,2.70
2023-01-12T23:18:14.427Z,1.27
2023-01-12T23:20:43.598Z,3.30
2023-01-12T23:23:12.009Z,5.57
2023-01-12T23:25:40.301Z,3.42
2023-01-12T23:28:08.926Z,2.53
2023-01-12T23:30:36.734Z,2.72
2023-01-12T23:33:05.595Z,1.50
2023-01-12T23:35:36.887Z,2.95
2023-01-12T23:38:06.440Z,1.83
2023-01-12T23:40:34.689Z,5.07
2023-01-12T23:43:02.583Z,3.80
2023-01-12T23:45:30.213Z,2.08
2023-01-12T23:47:57.932Z,0.95
2023-01-12T23:50:25.556Z,1.27
2023-01-12T23:52:53.278Z,3.38
2023-01-12T23:55:22.221Z,4.65
2023-01-12T23:57:49.850Z,1.80
